createdAt,value
2023-10-05T00:02:15.008Z,18.30
2023-10-05T00:04:48.006Z,18.30
2023-10-05T00:07:29.443Z,18.30
2023-10-05T00:10:00.004Z,18.30
2023-10-05T00:12:30.693Z,18.30
2023-10-05T00:15:06.585Z,18.30
2023-10-05T00:17:40.943Z,18.20
2023-10-05T00:20:15.458Z,18.30
2023-10-05T00:22:46.046Z,18.30
2023-10-05T00:25:20.670Z,18.30
2023-10-05T00:27:55.234Z,18.30
2023-10-05T00:30:25.498Z,18.30
2023-10-05T00:32:59.117Z,18.20
2023-10-05T00:35:31.451Z,18.30
2023-10-05T00:38:13.190Z,18.30
2023-10-05T00:41:06.386Z,18.20
2023-10-05T00:43:36.662Z,18.20
2023-10-05T00:46:07.392Z,18.30
2023-10-05T00:48:37.715Z,18.20
2023-10-05T00:51:26.369Z,18.30
2023-10-05T00:53:59.289Z,18.30
2023-10-05T00:56:36.733Z,18.30
2023-10-05T00:59:09.451Z,18.30
2023-10-05T01:01:57.966Z,18.30
2023-10-05T01:04:40.738Z,18.30
2023-10-05T01:07:34.743Z,18.30
2023-10-05T01:10:09.043Z,18.30
2023-10-05T01:12:47.574Z,18.30
2023-10-05T01:15:27.235Z,18.30
2023-10-05T01:17:59.391Z,18.30
2023-10-05T01:20:32.244Z,18.30
2023-10-05T01:23:07.841Z,18.30
2023-10-05T01:25:39.644Z,18.30
2023-10-05T01:28:10.945Z,18.30
2023-10-05T01:30:41.551Z,18.30
2023-10-05T01:33:21.719Z,18.30
2023-10-05T01:35:54.891Z,18.30
2023-10-05T01:38:31.514Z,18.30
2023-10-05T01:41:03.919Z,18.30
2023-10-05T01:43:34.309Z,18.30
2023-10-05T01:48:54.836Z,18.30
2023-10-05T01:51:28.167Z,18.30
2023-10-05T01:54:21.797Z,18.30
2023-10-05T01:56:52.856Z,18.30
2023-10-05T01:59:24.349Z,18.30
2023-10-05T02:01:56.932Z,18.30
2023-10-05T02:04:27.470Z,18.40
2023-10-05T02:06:58.140Z,18.30
2023-10-05T02:09:46.542Z,18.40
2023-10-05T02:12:16.800Z,18.40
2023-10-05T02:14:47.046Z,18.40
2023-10-05T02:17:17.605Z,18.40
2023-10-05T02:19:47.845Z,18.40
2023-10-05T02:22:23.949Z,18.40
2023-10-05T02:24:56.947Z,18.40
2023-10-05T02:27:29.688Z,18.40
2023-10-05T02:30:07.423Z,18.40
2023-10-05T02:32:37.705Z,18.40
2023-10-05T02:35:21.569Z,18.40
2023-10-05T02:37:54.339Z,18.40
2023-10-05T02:40:29.674Z,18.40
2023-10-05T02:43:05.406Z,18.40
2023-10-05T02:45:36.816Z,18.40
2023-10-05T02:48:12.948Z,18.40
2023-10-05T02:50:43.228Z,18.40
2023-10-05T02:53:13.531Z,18.40
2023-10-05T02:55:43.784Z,18.40
2023-10-05T02:58:16.567Z,18.40
2023-10-05T03:00:49.628Z,18.40
2023-10-05T03:03:20.430Z,18.40
2023-10-05T03:05:51.114Z,18.40
2023-10-05T03:08:32.653Z,18.40
2023-10-05T03:11:02.984Z,18.40
2023-10-05T03:13:34.216Z,18.40
2023-10-05T03:16:09.021Z,18.40
2023-10-05T03:18:45.785Z,18.40
2023-10-05T03:21:17.225Z,18.50
2023-10-05T03:23:48.469Z,18.50
2023-10-05T03:26:21.227Z,18.40
2023-10-05T03:28:52.354Z,18.50
2023-10-05T03:31:35.352Z,18.50
2023-10-05T03:34:08.677Z,18.50
2023-10-05T03:36:39.248Z,18.40
2023-10-05T03:39:10.651Z,18.50
2023-10-05T03:41:41.882Z,18.50
2023-10-05T03:44:18.626Z,18.50
2023-10-05T03:46:49.694Z,18.50
2023-10-05T03:49:26.080Z,18.50
2023-10-05T03:51:58.784Z,18.50
2023-10-05T03:54:29.855Z,18.50
2023-10-05T03:57:15.878Z,18.40
2023-10-05T03:59:46.615Z,18.50
2023-10-05T04:02:20.735Z,18.40
2023-10-05T04:04:53.545Z,18.40
2023-10-05T04:07:24.290Z,18.40
2023-10-05T04:09:55.877Z,18.50
2023-10-05T04:12:26.186Z,18.40
2023-10-05T04:14:57.134Z,18.50
2023-10-05T04:17:28.990Z,18.50
2023-10-05T04:19:59.600Z,18.40
2023-10-05T04:22:29.903Z,18.40
2023-10-05T04:25:01.554Z,18.40
2023-10-05T04:27:31.916Z,18.40
2023-10-05T04:30:02.310Z,18.40
2023-10-05T04:32:32.585Z,18.40
2023-10-05T04:35:17.545Z,18.40
2023-10-05T04:37:47.764Z,18.40
2023-10-05T04:40:19.738Z,18.40
2023-10-05T04:42:50.301Z,18.40
2023-10-05T04:45:23.705Z,18.40
2023-10-05T04:48:01.297Z,18.40
2023-10-05T04:50:31.997Z,18.40
2023-10-05T04:53:03.805Z,18.40
2023-10-05T04:55:34.721Z,18.40
2023-10-05T04:58:22.907Z,18.40
2023-10-05T05:01:14.989Z,18.40
2023-10-05T05:03:51.648Z,18.40
2023-10-05T05:06:23.713Z,18.40
2023-10-05T05:08:54.040Z,18.40
2023-10-05T05:11:24.409Z,18.40
2023-10-05T05:13:57.988Z,18.40
2023-10-05T05:16:28.353Z,18.40
2023-10-05T05:18:58.841Z,18.40
2023-10-05T05:21:29.292Z,18.40
2023-10-05T05:24:01.355Z,18.40
2023-10-05T05:26:32.841Z,18.40
2023-10-05T05:29:03.210Z,18.40
2023-10-05T05:31:33.887Z,18.40
2023-10-05T05:34:04.387Z,18.40
2023-10-05T05:36:39.057Z,18.40
2023-10-05T05:39:09.342Z,18.40
2023-10-05T05:41:40.259Z,18.40
2023-10-05T05:44:10.540Z,18.40
2023-10-05T05:46:41.986Z,18.40
2023-10-05T05:49:12.844Z,18.40
2023-10-05T05:51:45.740Z,18.40
2023-10-05T05:54:16.593Z,18.40
2023-10-05T05:56:47.261Z,18.40
2023-10-05T05:59:17.608Z,18.40
2023-10-05T06:01:49.796Z,18.40
2023-10-05T06:04:24.072Z,18.40
2023-10-05T06:06:54.653Z,18.40
2023-10-05T06:09:25.490Z,18.40
2023-10-05T06:11:56.289Z,18.40
2023-10-05T06:14:26.600Z,18.40
2023-10-05T06:16:57.378Z,18.40
2023-10-05T06:19:27.807Z,18.40
2023-10-05T06:21:58.320Z,18.40
2023-10-05T06:24:28.648Z,18.40
2023-10-05T06:26:59.088Z,18.30
2023-10-05T06:29:29.549Z,18.40
2023-10-05T06:31:59.920Z,18.30
2023-10-05T06:34:30.362Z,18.30
2023-10-05T06:37:00.976Z,18.40
2023-10-05T06:39:33.673Z,18.40
2023-10-05T06:42:04.096Z,18.30
2023-10-05T06:44:36.177Z,18.30
2023-10-05T06:47:07.673Z,18.30
2023-10-05T06:49:39.246Z,18.30
2023-10-05T06:52:10.126Z,18.30
2023-10-05T06:54:40.443Z,18.30
2023-10-05T06:57:11.069Z,18.30
2023-10-05T06:59:45.184Z,18.30
2023-10-05T07:02:18.605Z,18.30
2023-10-05T07:04:49.665Z,18.30
2023-10-05T07:07:21.909Z,18.30
2023-10-05T07:09:52.743Z,18.30
2023-10-05T07:12:23.368Z,18.30
2023-10-05T07:14:54.200Z,18.30
2023-10-05T07:17:24.525Z,18.30
2023-10-05T07:19:57.981Z,18.30
2023-10-05T07:22:28.840Z,18.30
2023-10-05T07:24:59.237Z,18.30
2023-10-05T07:27:30.769Z,18.30
2023-10-05T07:30:01.065Z,18.30
2023-10-05T07:32:32.008Z,18.30
2023-10-05T07:35:02.829Z,18.30
2023-10-05T07:37:33.481Z,18.30
2023-10-05T07:40:04.105Z,18.20
2023-10-05T07:42:34.798Z,18.30
2023-10-05T07:45:09.131Z,18.30
2023-10-05T07:47:49.593Z,18.30
2023-10-05T07:50:19.994Z,18.30
2023-10-05T07:52:53.860Z,18.20
2023-10-05T07:55:24.396Z,18.20
2023-10-05T07:57:57.991Z,18.20
2023-10-05T08:00:28.418Z,18.20
2023-10-05T08:02:59.065Z,18.20
2023-10-05T08:05:30.000Z,18.20
2023-10-05T08:08:00.998Z,18.20
2023-10-05T08:10:31.612Z,18.20
2023-10-05T08:13:06.090Z,18.20
2023-10-05T08:15:37.483Z,18.20
2023-10-05T08:18:08.180Z,18.20
2023-10-05T08:20:39.412Z,18.20
2023-10-05T08:23:11.406Z,18.20
2023-10-05T08:25:41.915Z,18.20
2023-10-05T08:28:13.274Z,18.10
2023-10-05T08:31:10.740Z,18.10
2023-10-05T08:33:43.203Z,18.10
2023-10-05T08:36:16.445Z,18.10
2023-10-05T08:38:52.552Z,18.10
2023-10-05T08:41:29.828Z,18.10
2023-10-05T08:44:00.601Z,18.10
2023-10-05T08:46:32.575Z,18.10
2023-10-05T08:49:10.376Z,18.10
2023-10-05T08:51:47.849Z,18.10
2023-10-05T08:54:30.772Z,18.10
2023-10-05T08:57:01.865Z,18.00
2023-10-05T08:59:32.389Z,18.10
2023-10-05T09:02:03.026Z,18.00
2023-10-05T09:04:47.788Z,18.00
2023-10-05T09:07:39.252Z,18.00
2023-10-05T09:10:19.766Z,18.00
2023-10-05T09:13:13.468Z,18.00
2023-10-05T09:16:00.448Z,18.00
2023-10-05T09:18:30.917Z,18.00
2023-10-05T09:21:02.286Z,18.00
2023-10-05T09:23:35.248Z,18.00
2023-10-05T09:26:09.698Z,18.00
2023-10-05T09:28:54.687Z,18.00
2023-10-05T09:31:47.435Z,18.00
2023-10-05T09:34:18.617Z,18.00
2023-10-05T09:36:49.929Z,17.90
2023-10-05T09:39:21.348Z,17.90
2023-10-05T09:41:58.237Z,17.90
2023-10-05T09:44:33.343Z,18.00
2023-10-05T09:47:06.105Z,17.90
2023-10-05T09:49:37.903Z,17.90
2023-10-05T09:52:08.365Z,17.90
2023-10-05T09:54:41.742Z,17.90
2023-10-05T09:57:13.870Z,17.90
2023-10-05T09:59:44.384Z,17.90
2023-10-05T10:02:20.793Z,17.90
2023-10-05T10:04:52.571Z,17.90
2023-10-05T10:07:26.513Z,17.80
2023-10-05T10:09:59.004Z,17.80
2023-10-05T10:12:42.303Z,17.80
2023-10-05T10:15:28.272Z,17.90
2023-10-05T10:18:33.564Z,17.80
2023-10-05T10:21:11.403Z,17.80
2023-10-05T10:23:42.700Z,17.80
2023-10-05T10:26:27.467Z,17.70
2023-10-05T10:29:08.666Z,17.80
2023-10-05T10:31:45.976Z,17.80
2023-10-05T10:34:46.333Z,17.80
2023-10-05T10:37:53.896Z,17.70
2023-10-05T10:40:25.932Z,17.80
2023-10-05T10:43:08.992Z,17.70
2023-10-05T10:45:52.741Z,17.70
2023-10-05T10:48:31.888Z,17.70
2023-10-05T10:51:13.532Z,17.70
2023-10-05T10:53:48.259Z,17.70
2023-10-05T10:56:25.667Z,17.70
2023-10-05T10:58:59.908Z,17.70
2023-10-05T11:01:43.997Z,17.60
2023-10-05T11:04:28.538Z,17.60
2023-10-05T11:07:03.401Z,17.70
2023-10-05T11:09:39.428Z,17.60
2023-10-05T11:12:14.753Z,17.60
2023-10-05T11:14:48.881Z,17.60
2023-10-05T11:17:38.552Z,17.60
2023-10-05T11:20:17.695Z,17.60
2023-10-05T11:22:48.703Z,17.60
2023-10-05T11:25:19.509Z,17.50
2023-10-05T11:27:57.524Z,17.60
2023-10-05T11:31:11.331Z,17.60
2023-10-05T11:34:08.766Z,17.60
2023-10-05T11:36:36.880Z,17.50
2023-10-05T11:39:08.732Z,17.50
2023-10-05T11:41:39.415Z,17.50
2023-10-05T11:44:14.853Z,17.50
2023-10-05T11:46:49.394Z,17.50
2023-10-05T11:49:21.016Z,17.50
2023-10-05T11:51:59.386Z,17.50
2023-10-05T11:54:33.953Z,17.50
2023-10-05T11:57:07.714Z,17.50
2023-10-05T11:59:42.032Z,17.50
2023-10-05T12:02:12.648Z,17.40
2023-10-05T12:04:44.927Z,17.40
2023-10-05T12:07:17.058Z,17.40
2023-10-05T12:09:47.852Z,17.40
2023-10-05T12:12:21.440Z,17.40
2023-10-05T12:14:53.687Z,17.40
2023-10-05T12:17:25.746Z,17.40
2023-10-05T12:19:57.569Z,17.40
2023-10-05T12:22:35.712Z,17.40
2023-10-05T12:25:10.583Z,17.30
2023-10-05T12:27:41.284Z,17.40
2023-10-05T12:30:15.314Z,17.30
2023-10-05T12:32:46.165Z,17.30
2023-10-05T12:35:16.817Z,17.30
2023-10-05T12:37:47.965Z,17.30
2023-10-05T12:40:22.007Z,17.30
2023-10-05T12:43:14.076Z,17.30
2023-10-05T12:45:49.647Z,17.30
2023-10-05T12:48:19.936Z,17.20
2023-10-05T12:50:50.949Z,17.20
2023-10-05T12:53:23.643Z,17.20
2023-10-05T12:55:54.077Z,17.20
2023-10-05T12:58:24.404Z,17.20
2023-10-05T13:00:54.936Z,17.20
2023-10-05T13:03:28.548Z,17.20
2023-10-05T13:05:59.578Z,17.20
2023-10-05T13:08:32.690Z,17.20
2023-10-05T13:11:04.812Z,17.20
2023-10-05T13:13:38.029Z,17.20
2023-10-05T13:16:16.311Z,17.20
2023-10-05T13:18:46.902Z,17.10
2023-10-05T13:21:17.465Z,17.10
2023-10-05T13:23:49.025Z,17.10
2023-10-05T13:26:21.223Z,17.10
2023-10-05T13:28:51.482Z,17.10
2023-10-05T13:31:23.845Z,17.10
2023-10-05T13:33:57.693Z,17.10
2023-10-05T13:36:29.644Z,17.10
2023-10-05T13:39:00.257Z,17.10
2023-10-05T13:41:30.649Z,17.10
2023-10-05T13:44:01.040Z,17.00
2023-10-05T13:46:38.768Z,17.00
2023-10-05T13:49:11.619Z,17.00
2023-10-05T13:51:42.538Z,17.00
2023-10-05T13:54:18.207Z,17.00
2023-10-05T13:56:53.483Z,17.00
2023-10-05T13:59:29.106Z,17.00
2023-10-05T14:02:03.410Z,17.00
2023-10-05T14:04:40.391Z,16.90
2023-10-05T14:07:11.150Z,17.00
2023-10-05T14:09:46.872Z,16.90
2023-10-05T14:12:36.501Z,16.90
2023-10-05T14:15:25.773Z,16.90
2023-10-05T14:17:59.731Z,16.90
2023-10-05T14:20:30.225Z,16.90
2023-10-05T14:23:02.229Z,16.90
2023-10-05T14:25:32.661Z,16.90
2023-10-05T14:28:04.161Z,16.90
2023-10-05T14:30:34.507Z,16.90
2023-10-05T14:33:06.597Z,16.80
2023-10-05T14:35:36.967Z,16.80
2023-10-05T14:38:13.102Z,16.80
2023-10-05T14:40:43.700Z,16.80
2023-10-05T14:43:37.675Z,16.80
2023-10-05T14:46:11.195Z,16.80
2023-10-05T14:48:43.070Z,16.80
2023-10-05T14:51:19.216Z,16.80
2023-10-05T14:53:52.001Z,16.80
2023-10-05T14:56:23.574Z,16.80
2023-10-05T14:58:55.300Z,16.70
2023-10-05T15:01:25.835Z,16.70
2023-10-05T15:03:56.300Z,16.70
2023-10-05T15:06:26.532Z,16.70
2023-10-05T15:08:56.822Z,16.70
2023-10-05T15:11:29.332Z,16.70
2023-10-05T15:14:01.190Z,16.70
2023-10-05T15:16:31.520Z,16.70
2023-10-05T15:19:02.295Z,16.70
2023-10-05T15:21:33.542Z,16.70
2023-10-05T15:24:05.742Z,16.60
2023-10-05T15:26:36.038Z,16.60
2023-10-05T15:29:08.518Z,16.60
2023-10-05T15:31:39.779Z,16.60
2023-10-05T15:34:10.752Z,16.60
2023-10-05T15:36:41.046Z,16.60
2023-10-05T15:39:12.908Z,16.60
2023-10-05T15:41:43.222Z,16.60
2023-10-05T15:44:13.629Z,16.60
2023-10-05T15:46:45.114Z,16.60
2023-10-05T15:49:15.912Z,16.50
2023-10-05T15:51:48.183Z,16.50
2023-10-05T15:54:18.568Z,16.50
2023-10-05T15:56:48.866Z,16.50
2023-10-05T15:59:19.322Z,16.50
2023-10-05T16:01:52.328Z,16.50
2023-10-05T16:04:23.537Z,16.50
2023-10-05T16:07:06.277Z,16.50
2023-10-05T16:09:37.688Z,16.50
2023-10-05T16:12:10.058Z,16.50
2023-10-05T16:14:40.345Z,16.40
2023-10-05T16:17:10.637Z,16.40
2023-10-05T16:19:41.476Z,16.40
2023-10-05T16:22:14.479Z,16.40
2023-10-05T16:24:47.250Z,16.50
2023-10-05T16:27:17.557Z,16.40
2023-10-05T16:29:47.925Z,16.40
2023-10-05T16:32:18.207Z,16.40
2023-10-05T16:34:49.056Z,16.40
2023-10-05T16:37:23.516Z,16.40
2023-10-05T16:39:56.722Z,16.40
2023-10-05T16:42:27.082Z,16.40
2023-10-05T16:44:57.552Z,16.40
2023-10-05T16:47:28.125Z,16.40
2023-10-05T16:49:58.736Z,16.30
2023-10-05T16:52:29.359Z,16.30
2023-10-05T16:54:59.688Z,16.30
2023-10-05T16:57:31.332Z,16.30
2023-10-05T17:00:02.117Z,16.30
2023-10-05T17:02:32.577Z,16.30
2023-10-05T17:05:16.080Z,16.30
2023-10-05T17:07:48.382Z,16.30
2023-10-05T17:10:18.936Z,16.30
2023-10-05T17:12:50.468Z,16.30
2023-10-05T17:15:22.761Z,16.30
2023-10-05T17:17:56.182Z,16.30
2023-10-05T17:20:26.854Z,16.30
2023-10-05T17:22:57.609Z,16.20
2023-10-05T17:25:31.957Z,16.20
2023-10-05T17:28:02.980Z,16.20
2023-10-05T17:30:33.539Z,16.20
2023-10-05T17:33:03.843Z,16.30
2023-10-05T17:35:35.426Z,16.20
2023-10-05T17:38:07.636Z,16.30
2023-10-05T17:40:41.101Z,16.20
2023-10-05T17:43:11.460Z,16.20
2023-10-05T17:45:45.560Z,16.20
2023-10-05T17:48:16.188Z,16.20
2023-10-05T17:50:56.861Z,16.20
2023-10-05T17:53:27.826Z,16.20
2023-10-05T17:55:58.349Z,16.20
2023-10-05T17:58:30.371Z,16.20
2023-10-05T18:01:01.119Z,16.20
2023-10-05T18:03:31.996Z,16.20
2023-10-05T18:06:07.848Z,16.20
2023-10-05T18:08:40.354Z,16.20
2023-10-05T18:11:13.092Z,16.20
2023-10-05T18:13:44.368Z,16.20
2023-10-05T18:16:17.939Z,16.10
2023-10-05T18:18:50.502Z,16.20
2023-10-05T18:21:21.232Z,16.10
2023-10-05T18:23:54.964Z,16.10
2023-10-05T18:26:25.664Z,16.10
2023-10-05T18:28:56.644Z,16.10
2023-10-05T18:31:28.613Z,16.10
2023-10-05T18:34:01.533Z,16.10
2023-10-05T18:36:32.329Z,16.10
2023-10-05T18:39:02.862Z,16.10
2023-10-05T18:41:33.518Z,16.00
2023-10-05T18:44:04.173Z,16.10
2023-10-05T18:46:34.608Z,16.10
2023-10-05T18:49:06.627Z,16.00
2023-10-05T18:51:37.137Z,16.10
2023-10-05T18:54:08.124Z,16.10
2023-10-05T18:56:39.646Z,16.10
2023-10-05T18:59:09.969Z,16.10
2023-10-05T19:01:41.360Z,16.00
2023-10-05T19:04:13.307Z,16.00
2023-10-05T19:06:44.047Z,16.00
2023-10-05T19:09:14.512Z,16.00
2023-10-05T19:11:45.784Z,16.00
2023-10-05T19:14:16.432Z,16.00
2023-10-05T19:16:47.133Z,16.00
2023-10-05T19:19:17.433Z,16.00
2023-10-05T19:21:47.744Z,16.00
2023-10-05T19:24:18.032Z,16.00
2023-10-05T19:26:51.473Z,16.00
2023-10-05T19:29:21.826Z,16.00
2023-10-05T19:31:54.352Z,16.00
2023-10-05T19:34:25.484Z,16.00
2023-10-05T19:36:56.655Z,16.00
2023-10-05T19:39:26.932Z,16.00
2023-10-05T19:41:57.691Z,16.00
2023-10-05T19:44:28.070Z,16.00
2023-10-05T19:46:58.426Z,16.00
2023-10-05T19:49:29.791Z,15.90
2023-10-05T19:52:00.354Z,15.90
2023-10-05T19:54:31.658Z,15.90
2023-10-05T19:57:04.165Z,15.90
2023-10-05T19:59:34.835Z,15.90
2023-10-05T20:02:10.799Z,15.90
2023-10-05T20:04:41.751Z,15.90
2023-10-05T20:07:13.348Z,15.90
2023-10-05T20:09:43.716Z,15.90
2023-10-05T20:12:14.317Z,15.90
2023-10-05T20:14:44.577Z,15.90
2023-10-05T20:17:16.446Z,15.90
2023-10-05T20:19:47.467Z,15.90
2023-10-05T20:22:17.854Z,15.90
2023-10-05T20:24:48.080Z,15.90
2023-10-05T20:27:18.870Z,15.90
2023-10-05T20:29:49.357Z,15.80
2023-10-05T20:32:19.973Z,15.90
2023-10-05T20:34:50.293Z,15.80
2023-10-05T20:37:20.606Z,15.80
2023-10-05T20:39:51.049Z,15.80
2023-10-05T20:42:22.603Z,15.80
2023-10-05T20:44:53.893Z,15.80
2023-10-05T20:47:24.434Z,15.80
2023-10-05T20:49:55.029Z,15.80
2023-10-05T20:52:25.606Z,15.80
2023-10-05T20:54:58.329Z,15.80
2023-10-05T20:57:28.621Z,15.80
2023-10-05T20:59:58.955Z,15.80
2023-10-05T21:02:29.281Z,15.80
2023-10-05T21:04:59.667Z,15.80
2023-10-05T21:07:30.029Z,15.80
2023-10-05T21:10:00.855Z,15.80
2023-10-05T21:12:31.087Z,15.80
2023-10-05T21:15:01.345Z,15.80
2023-10-05T21:17:34.855Z,15.70
2023-10-05T21:20:07.343Z,15.80
2023-10-05T21:22:38.066Z,15.70
2023-10-05T21:25:09.692Z,15.80
2023-10-05T21:27:40.898Z,15.80
2023-10-05T21:30:12.036Z,15.80
2023-10-05T21:32:42.600Z,15.80
2023-10-05T21:35:13.764Z,15.70
2023-10-05T21:37:44.309Z,15.70
2023-10-05T21:40:15.760Z,15.70
2023-10-05T21:42:46.089Z,15.70
2023-10-05T21:45:18.113Z,15.70
2023-10-05T21:47:52.639Z,15.70
2023-10-05T21:50:25.134Z,15.70
2023-10-05T21:52:57.338Z,15.70
2023-10-05T21:55:27.844Z,15.70
2023-10-05T21:57:58.116Z,15.70
2023-10-05T22:00:48.439Z,15.70
2023-10-05T22:03:19.461Z,15.70
2023-10-05T22:05:49.924Z,15.70
2023-10-05T22:08:20.264Z,15.70
2023-10-05T22:10:51.352Z,15.70
2023-10-05T22:13:21.625Z,15.70
2023-10-05T22:15:51.964Z,15.70
2023-10-05T22:18:22.235Z,15.70
2023-10-05T22:20:52.681Z,15.70
2023-10-05T22:23:24.992Z,15.70
2023-10-05T22:25:58.696Z,15.70
2023-10-05T22:34:01.478Z,15.70
2023-10-05T22:36:37.881Z,15.70
2023-10-05T22:39:08.704Z,15.70
2023-10-05T22:41:39.477Z,15.70
2023-10-05T22:44:12.793Z,15.70
2023-10-05T22:49:32.920Z,15.70
2023-10-05T22:52:03.264Z,15.70
2023-10-05T22:54:36.101Z,15.70
2023-10-05T22:57:06.711Z,15.70
2023-10-05T22:59:37.629Z,15.70
2023-10-05T23:02:13.362Z,15.70
2023-10-05T23:04:43.841Z,15.80
2023-10-05T23:07:14.752Z,15.80
2023-10-05T23:09:47.266Z,15.70
2023-10-05T23:12:18.332Z,15.80
2023-10-05T23:14:54.519Z,15.80
2023-10-05T23:17:29.680Z,15.80
2023-10-05T23:19:59.945Z,15.80
2023-10-05T23:22:30.732Z,15.80
2023-10-05T23:25:01.029Z,15.80
2023-10-05T23:27:31.275Z,15.80
2023-10-05T23:30:01.582Z,15.80
2023-10-05T23:32:32.184Z,15.80
2023-10-05T23:35:03.992Z,15.80
2023-10-05T23:37:38.590Z,15.80
2023-10-05T23:40:12.143Z,15.80
2023-10-05T23:42:43.828Z,15.80
2023-10-05T23:45:15.946Z,15.80
2023-10-05T23:47:51.221Z,15.80
2023-10-05T23:50:39.511Z,15.90
2023-10-05T23:53:12.672Z,15.80
2023-10-05T23:55:46.301Z,15.90
2023-10-05T23:58:18.261Z,15.90
